createdAt,value
2018-11-21T00:00:48.259Z,5.90
2018-11-21T00:01:47.169Z,5.87
2018-11-21T00:02:47.061Z,5.92
2018-11-21T00:03:46.960Z,5.92
2018-11-21T00:04:46.886Z,5.87
2018-11-21T00:05:46.785Z,5.73
2018-11-21T00:06:48.334Z,5.83
2018-11-21T00:07:46.661Z,5.75
2018-11-21T00:08:46.540Z,5.70
2018-11-21T00:09:46.432Z,5.75
2018-11-21T00:12:28.324Z,5.67
2018-11-21T00:13:28.344Z,5.78
2018-11-21T00:14:28.157Z,5.81
2018-11-21T00:17:10.498Z,5.74
2018-11-21T00:18:10.271Z,5.80
2018-11-21T00:19:10.145Z,5.65
2018-11-21T00:20:10.089Z,5.74
2018-11-21T00:21:09.974Z,5.77
2018-11-21T00:22:09.900Z,5.63
2018-11-21T00:23:09.829Z,5.74
2018-11-21T00:24:09.714Z,5.70
2018-11-21T00:25:09.646Z,5.73
2018-11-21T00:26:09.558Z,5.65
2018-11-21T00:27:09.447Z,5.62
2018-11-21T00:28:09.404Z,5.60
2018-11-21T00:29:09.299Z,5.66
2018-11-21T00:30:09.248Z,5.63
2018-11-21T00:31:09.107Z,5.56
2018-11-21T00:32:09.022Z,5.63
2018-11-21T00:33:08.948Z,5.58
2018-11-21T00:34:08.889Z,5.66
2018-11-21T00:35:10.339Z,5.52
2018-11-21T00:36:08.687Z,5.60
2018-11-21T00:37:08.610Z,5.59
2018-11-21T00:38:08.537Z,5.49
2018-11-21T00:39:08.450Z,5.55
2018-11-21T00:41:50.340Z,5.58
2018-11-21T00:42:50.246Z,5.55
2018-11-21T00:43:50.164Z,5.45
2018-11-21T00:44:50.079Z,5.48
2018-11-21T00:45:50.003Z,5.47
2018-11-21T00:46:49.915Z,5.41
2018-11-21T00:47:49.839Z,5.44
2018-11-21T00:48:49.762Z,5.33
2018-11-21T00:49:49.685Z,5.38
2018-11-21T00:50:49.581Z,5.37
2018-11-21T00:51:49.471Z,5.32
2018-11-21T00:52:50.344Z,5.33
2018-11-21T00:53:50.347Z,5.35
2018-11-21T00:54:49.284Z,5.42
2018-11-21T00:55:49.882Z,5.30
2018-11-21T00:56:49.898Z,5.32
2018-11-21T00:57:48.976Z,5.29
2018-11-21T00:58:48.866Z,5.32
2018-11-21T00:59:48.834Z,5.38
2018-11-21T01:00:48.711Z,5.32
2018-11-21T01:01:48.615Z,5.38
2018-11-21T01:02:48.525Z,5.35
2018-11-21T01:03:48.423Z,5.27
2018-11-21T01:04:48.342Z,5.29
2018-11-21T01:05:48.844Z,5.29
2018-11-21T01:06:48.208Z,5.27
2018-11-21T01:07:48.074Z,5.23
2018-11-21T01:08:48.012Z,5.26
2018-11-21T01:09:47.903Z,5.24
2018-11-21T01:10:47.864Z,5.23
2018-11-21T01:11:47.733Z,5.26
2018-11-21T01:14:29.833Z,5.26
2018-11-21T01:15:51.751Z,5.27
2018-11-21T01:16:29.660Z,5.22
2018-11-21T01:17:30.344Z,5.20
2018-11-21T01:18:29.482Z,5.22
2018-11-21T01:19:29.381Z,5.23
2018-11-21T01:20:31.348Z,5.26
2018-11-21T01:21:29.222Z,5.15
2018-11-21T01:24:11.315Z,5.15
2018-11-21T01:25:12.268Z,5.20
2018-11-21T01:26:11.905Z,5.17
2018-11-21T01:27:12.102Z,5.15
2018-11-21T01:28:10.995Z,5.22
2018-11-21T01:29:10.898Z,5.17
2018-11-21T01:30:11.409Z,5.15
2018-11-21T01:31:10.766Z,5.22
2018-11-21T01:32:11.374Z,5.22
2018-11-21T01:33:10.554Z,5.17
2018-11-21T01:34:10.460Z,5.17
2018-11-21T01:35:10.386Z,5.20
2018-11-21T01:36:10.300Z,5.20
2018-11-21T01:37:11.238Z,5.11
2018-11-21T01:38:10.118Z,5.14
2018-11-21T01:40:52.369Z,5.12
2018-11-21T01:41:52.266Z,5.12
2018-11-21T01:42:52.150Z,5.23
2018-11-21T01:43:52.878Z,5.05
2018-11-21T01:44:51.975Z,5.14
2018-11-21T01:45:51.923Z,5.04
2018-11-21T01:46:51.829Z,5.06
2018-11-21T01:47:51.725Z,5.04
2018-11-21T01:48:51.653Z,5.09
2018-11-21T01:49:51.554Z,5.05
2018-11-21T01:50:51.455Z,5.15
2018-11-21T01:53:33.354Z,5.14
2018-11-21T01:54:33.270Z,5.12
2018-11-21T01:55:33.146Z,5.12
2018-11-21T01:56:33.078Z,5.14
2018-11-21T01:57:32.983Z,5.14
2018-11-21T01:58:32.935Z,5.11
2018-11-21T01:59:32.803Z,5.14
2018-11-21T02:00:32.738Z,5.14
2018-11-21T02:01:32.687Z,5.09
2018-11-21T02:02:33.608Z,5.22
2018-11-21T02:03:32.489Z,5.22
2018-11-21T02:21:54.890Z,4.94
2018-11-21T02:24:36.862Z,4.91
2018-11-21T02:25:57.722Z,4.99
2018-11-21T02:26:36.682Z,4.96
2018-11-21T02:27:36.573Z,4.99
2018-11-21T02:30:18.864Z,4.91
2018-11-21T02:31:18.750Z,4.96
2018-11-21T02:32:18.668Z,4.91
2018-11-21T02:36:03.860Z,4.99
2018-11-21T02:37:24.724Z,4.99
2018-11-21T02:38:03.678Z,5.02
2018-11-21T02:39:03.577Z,4.94
2018-11-21T02:40:03.512Z,4.88
2018-11-21T02:42:45.334Z,4.87
2018-11-21T02:43:45.246Z,4.83
2018-11-21T02:58:40.620Z,4.84
2018-11-21T03:11:08.123Z,4.84
2018-11-21T03:12:06.995Z,4.86
2018-11-21T03:13:06.917Z,4.83
2018-11-21T03:14:06.825Z,4.80
2018-11-21T03:15:06.737Z,4.79
2018-11-21T03:16:06.654Z,4.83
2018-11-21T03:17:06.600Z,4.84
2018-11-21T03:18:06.477Z,4.90
2018-11-21T03:19:06.388Z,4.80
2018-11-21T03:20:06.306Z,4.87
2018-11-21T03:21:06.251Z,4.80
2018-11-21T03:22:06.195Z,4.83
2018-11-21T03:23:06.040Z,4.83
2018-11-21T03:25:47.850Z,4.65
2018-11-21T03:26:47.843Z,4.69
2018-11-21T03:27:47.678Z,4.65
2018-11-21T03:28:47.601Z,4.67
2018-11-21T03:29:48.444Z,4.69
2018-11-21T03:32:29.370Z,4.69
2018-11-21T03:33:29.277Z,4.69
2018-11-21T03:34:29.184Z,4.61
2018-11-21T03:37:11.356Z,4.56
2018-11-21T03:38:11.285Z,4.42
2018-11-21T03:39:11.932Z,4.43
2018-11-21T03:40:11.104Z,4.44
2018-11-21T03:41:11.003Z,4.31
2018-11-21T03:42:10.966Z,4.43
2018-11-21T03:43:10.870Z,4.24
2018-11-21T03:44:10.766Z,4.20
2018-11-21T03:45:10.661Z,4.14
2018-11-21T03:46:10.579Z,4.11
2018-11-21T03:47:10.511Z,4.14
2018-11-21T03:48:10.452Z,4.16
2018-11-21T03:49:10.343Z,4.26
2018-11-21T03:50:10.241Z,4.28
2018-11-21T03:51:10.139Z,4.28
2018-11-21T03:52:10.074Z,4.32
2018-11-21T03:53:09.995Z,4.42
2018-11-21T03:54:09.930Z,4.43
2018-11-21T03:55:09.813Z,4.38
2018-11-21T03:56:09.721Z,4.36
2018-11-21T03:57:09.639Z,4.38
2018-11-21T03:59:51.888Z,4.21
2018-11-21T04:00:51.775Z,4.25
2018-11-21T04:01:51.677Z,4.08
2018-11-21T04:02:51.611Z,4.21
2018-11-21T04:03:51.548Z,4.28
2018-11-21T04:05:04.957Z,4.21
2018-11-21T04:05:51.344Z,4.21
2018-11-21T04:06:51.254Z,4.13
2018-11-21T04:07:51.177Z,4.08
2018-11-21T04:08:51.094Z,4.13
2018-11-21T04:09:51.039Z,4.17
2018-11-21T04:10:50.923Z,4.06
2018-11-21T04:11:50.804Z,3.96
2018-11-21T04:12:53.366Z,3.84
2018-11-21T04:13:51.382Z,3.78
2018-11-21T04:14:50.621Z,3.72
2018-11-21T04:15:50.464Z,3.74
2018-11-21T04:16:50.418Z,3.62
2018-11-21T04:17:50.318Z,3.64
2018-11-21T04:18:50.226Z,3.68
2018-11-21T04:19:50.150Z,3.59
2018-11-21T04:20:50.040Z,3.68
2018-11-21T04:21:49.951Z,3.60
2018-11-21T04:22:49.880Z,3.67
2018-11-21T04:23:49.779Z,3.59
2018-11-21T04:24:49.738Z,3.57
2018-11-21T04:25:49.615Z,3.54
2018-11-21T04:28:31.991Z,3.56
2018-11-21T04:31:13.876Z,3.45
2018-11-21T04:32:34.753Z,3.41
2018-11-21T04:33:13.683Z,3.45
2018-11-21T04:34:13.605Z,3.45
2018-11-21T04:35:13.539Z,3.34
2018-11-21T04:36:13.417Z,3.33
2018-11-21T04:37:13.325Z,3.31
2018-11-21T04:38:13.244Z,3.26
2018-11-21T04:39:13.177Z,3.22
2018-11-21T04:41:55.378Z,3.26
2018-11-21T04:42:55.281Z,3.19
2018-11-21T04:43:55.164Z,3.31
2018-11-21T04:46:37.374Z,3.64
2018-11-21T04:47:37.276Z,3.72
2018-11-21T04:48:37.168Z,3.68
2018-11-21T04:51:19.378Z,3.75
2018-11-21T04:52:19.285Z,3.89
2018-11-21T04:53:19.175Z,3.78
2018-11-21T04:56:01.370Z,3.60
2018-11-21T04:57:01.265Z,3.57
2018-11-21T04:59:39.343Z,3.42
2018-11-21T05:01:00.262Z,3.22
2018-11-21T05:01:39.251Z,3.12
2018-11-21T05:02:39.129Z,3.16
2018-11-21T05:03:39.008Z,2.95
2018-11-21T05:04:40.873Z,2.90
2018-11-21T05:05:38.839Z,2.89
2018-11-21T05:06:38.758Z,2.79
2018-11-21T05:07:38.676Z,2.79
2018-11-21T05:10:20.849Z,2.68
2018-11-21T05:11:20.813Z,2.73
2018-11-21T05:12:21.411Z,2.79
2018-11-21T05:13:20.631Z,2.65
2018-11-21T05:14:20.545Z,2.69
2018-11-21T05:15:20.417Z,2.73
2018-11-21T05:16:20.329Z,2.71
2018-11-21T05:17:20.283Z,2.71
2018-11-21T05:18:20.190Z,2.73
2018-11-21T05:19:20.113Z,2.58
2018-11-21T05:20:19.985Z,2.61
2018-11-21T05:21:19.902Z,2.66
2018-11-21T05:22:19.860Z,2.69
2018-11-21T05:23:20.737Z,2.62
2018-11-21T05:24:19.628Z,2.62
2018-11-21T05:25:19.560Z,2.45
2018-11-21T05:26:19.451Z,2.47
2018-11-21T05:29:01.396Z,2.44
2018-11-21T05:30:01.331Z,2.45
2018-11-21T05:31:01.185Z,2.51
2018-11-21T05:34:46.387Z,2.44
2018-11-21T05:35:46.269Z,2.40
2018-11-21T05:36:46.188Z,2.47
2018-11-21T05:39:28.372Z,2.44
2018-11-21T05:40:28.280Z,2.45
2018-11-21T05:41:28.199Z,2.47
2018-11-21T05:42:28.095Z,2.43
2018-11-21T05:43:28.970Z,2.47
2018-11-21T05:44:31.407Z,2.37
2018-11-21T05:45:27.839Z,2.32
2018-11-21T05:46:27.789Z,2.29
2018-11-21T05:47:27.660Z,2.33
2018-11-21T05:48:27.609Z,2.37
2018-11-21T05:49:27.517Z,2.32
2018-11-21T05:50:28.909Z,2.30
2018-11-21T05:51:27.321Z,2.37
2018-11-21T05:52:27.317Z,2.38
2018-11-21T05:53:27.156Z,2.37
2018-11-21T05:54:30.881Z,2.43
2018-11-21T05:55:27.002Z,2.43
2018-11-21T05:56:26.878Z,2.36
2018-11-21T05:57:26.789Z,2.41
2018-11-21T05:58:27.094Z,2.37
2018-11-21T05:59:26.618Z,2.38
2018-11-21T06:00:26.583Z,2.36
2018-11-21T06:01:26.455Z,2.33
2018-11-21T06:04:08.363Z,2.27
2018-11-21T06:05:09.327Z,2.27
2018-11-21T06:06:10.020Z,2.23
2018-11-21T06:08:50.370Z,2.15
2018-11-21T06:09:51.377Z,2.18
2018-11-21T06:10:50.232Z,2.27
2018-11-21T06:13:32.362Z,2.27
2018-11-21T06:14:32.287Z,2.43
2018-11-21T06:15:36.878Z,2.33
2018-11-21T06:16:32.113Z,2.36
2018-11-21T06:17:32.010Z,2.37
2018-11-21T06:18:33.880Z,2.40
2018-11-21T06:19:32.437Z,2.40
2018-11-21T06:20:32.377Z,2.38
2018-11-21T06:21:31.667Z,2.26
2018-11-21T06:22:31.618Z,2.29
2018-11-21T06:37:11.923Z,2.12
2018-11-21T06:38:11.785Z,2.14
2018-11-21T06:39:11.743Z,2.09
2018-11-21T06:40:11.646Z,2.08
2018-11-21T06:42:54.427Z,2.02
2018-11-21T06:43:53.788Z,2.02
2018-11-21T06:44:53.694Z,2.02
2018-11-21T06:45:53.629Z,1.98
2018-11-21T06:46:53.549Z,1.98
2018-11-21T06:49:47.404Z,2.02
2018-11-21T06:50:47.283Z,2.02
2018-11-21T06:51:47.251Z,2.05
2018-11-21T06:52:47.109Z,2.07
2018-11-21T06:53:47.014Z,2.08
2018-11-21T06:54:46.963Z,2.12
2018-11-21T06:55:46.861Z,2.02
2018-11-21T06:56:47.409Z,2.02
2018-11-21T06:57:49.387Z,1.95
2018-11-21T06:58:46.568Z,1.93
2018-11-21T07:01:28.889Z,1.98
2018-11-21T07:03:53.375Z,1.98
2018-11-21T07:04:53.267Z,2.02
2018-11-21T07:05:53.241Z,2.14
2018-11-21T07:06:53.372Z,2.11
2018-11-21T07:07:53.099Z,2.25
2018-11-21T07:08:52.929Z,2.30
2018-11-21T07:09:52.856Z,2.27
2018-11-21T07:10:52.745Z,2.29
2018-11-21T07:11:52.664Z,2.22
2018-11-21T07:12:52.623Z,2.27
2018-11-21T07:13:52.540Z,2.32
2018-11-21T07:14:52.405Z,2.25
2018-11-21T07:17:34.910Z,2.38
2018-11-21T07:18:34.323Z,2.36
2018-11-21T07:19:34.188Z,2.33
2018-11-21T07:20:34.116Z,2.32
2018-11-21T07:21:34.018Z,2.44
2018-11-21T07:22:33.941Z,2.51
2018-11-21T07:23:33.872Z,2.44
2018-11-21T07:27:57.858Z,2.63
2018-11-21T07:28:57.816Z,2.68
2018-11-21T07:29:57.762Z,2.63
2018-11-21T07:33:46.657Z,2.69
2018-11-21T07:35:03.789Z,2.68
2018-11-21T07:36:03.691Z,2.69
2018-11-21T07:37:03.629Z,2.63
2018-11-21T07:37:42.560Z,2.66
2018-11-21T07:38:42.533Z,2.68
2018-11-21T07:54:37.777Z,3.16
2018-11-21T07:56:38.396Z,3.23
2018-11-21T07:59:20.422Z,3.53
2018-11-21T08:00:19.842Z,3.68
2018-11-21T08:01:19.718Z,3.77
2018-11-21T08:02:19.607Z,3.70
2018-11-21T08:03:19.541Z,3.70
2018-11-21T08:04:19.460Z,3.70
2018-11-21T08:05:19.355Z,3.57
2018-11-21T08:06:19.315Z,3.64
2018-11-21T08:07:19.179Z,3.64
2018-11-21T08:10:01.391Z,3.71
2018-11-21T08:11:22.329Z,3.70
2018-11-21T08:12:22.189Z,3.64
2018-11-21T08:13:22.099Z,3.50
2018-11-21T08:14:22.022Z,3.63
2018-11-21T08:15:00.960Z,3.78
2018-11-21T08:16:00.851Z,3.77
2018-11-21T08:17:23.450Z,3.86
2018-11-21T08:18:00.688Z,3.84
2018-11-21T08:19:00.585Z,3.90
2018-11-21T08:20:00.518Z,4.11
2018-11-21T08:21:00.428Z,4.17
2018-11-21T08:22:01.376Z,4.18
2018-11-21T08:23:00.241Z,4.17
2018-11-21T08:24:00.185Z,4.26
2018-11-21T08:38:23.832Z,3.96
2018-11-21T08:39:22.711Z,3.95
2018-11-21T08:42:04.896Z,4.07
2018-11-21T08:43:05.843Z,4.08
2018-11-21T08:44:04.708Z,4.04
2018-11-21T08:45:04.636Z,4.10
2018-11-21T08:46:04.531Z,4.14
2018-11-21T09:11:45.410Z,11.12
2018-11-21T09:12:45.906Z,9.95
2018-11-21T09:13:47.305Z,9.19
2018-11-21T09:14:45.155Z,8.49
2018-11-21T09:15:45.062Z,7.94
2018-11-21T09:16:44.959Z,7.45
2018-11-21T09:17:44.876Z,7.07
2018-11-21T09:18:44.781Z,6.68
2018-11-21T09:19:44.730Z,6.50
2018-11-21T09:20:44.614Z,6.33
2018-11-21T09:21:44.541Z,6.27
2018-11-21T09:22:44.448Z,6.33
2018-11-21T09:23:44.388Z,6.57
2018-11-21T09:24:44.311Z,6.82
2018-11-21T09:25:44.223Z,7.48
2018-11-21T09:26:44.159Z,8.43
2018-11-21T09:27:44.058Z,9.49
2018-11-21T09:28:43.955Z,10.49
2018-11-21T09:29:43.879Z,10.94
2018-11-21T09:30:43.803Z,11.08
2018-11-21T09:31:43.712Z,11.11
2018-11-21T09:32:43.618Z,11.05
2018-11-21T09:33:43.588Z,11.42
2018-11-21T09:34:43.461Z,11.77
2018-11-21T09:35:43.401Z,11.97
2018-11-21T09:36:43.286Z,12.08
2018-11-21T09:37:43.230Z,12.59
2018-11-21T09:38:43.119Z,12.80
2018-11-21T09:39:43.063Z,12.81
2018-11-21T09:40:42.951Z,12.55
2018-11-21T09:43:24.928Z,12.51
2018-11-21T09:46:06.937Z,12.23
2018-11-21T09:47:06.825Z,11.79
2018-11-21T09:48:06.750Z,11.56
2018-11-21T09:49:06.655Z,11.13
2018-11-21T09:50:06.595Z,10.93
2018-11-21T09:51:06.531Z,10.31
2018-11-21T09:52:06.411Z,10.73
2018-11-21T09:54:48.391Z,10.54
2018-11-21T09:55:48.370Z,10.16
2018-11-21T09:58:13.635Z,9.13
2018-11-21T10:23:10.188Z,10.36
2018-11-21T10:24:10.102Z,10.31
2018-11-21T10:25:09.979Z,10.43
2018-11-21T10:26:09.891Z,9.80
2018-11-21T10:27:10.273Z,9.70
2018-11-21T10:31:37.898Z,8.27
2018-11-21T10:32:37.848Z,7.86
2018-11-21T10:33:37.752Z,7.45
2018-11-21T10:34:37.661Z,7.70
2018-11-21T10:35:37.564Z,7.92
2018-11-21T10:36:37.483Z,7.91
2018-11-21T10:37:37.404Z,8.13
2018-11-21T10:38:37.462Z,8.52
2018-11-21T10:39:37.239Z,8.52
2018-11-21T10:42:19.429Z,8.65
2018-11-21T10:43:19.359Z,8.58
2018-11-21T10:44:19.252Z,8.64
2018-11-21T10:47:01.427Z,8.65
2018-11-21T10:49:43.444Z,9.15
2018-11-21T10:50:43.363Z,9.42
2018-11-21T10:51:43.236Z,9.45
2018-11-21T10:52:45.166Z,9.50
2018-11-21T10:53:43.116Z,9.81
2018-11-21T10:54:43.020Z,10.02
2018-11-21T10:55:42.930Z,10.28
2018-11-21T10:58:24.922Z,12.03
2018-11-21T10:59:24.890Z,12.26
2018-11-21T11:00:25.425Z,12.48
2018-11-21T11:03:06.934Z,12.63
2018-11-21T11:04:07.111Z,13.14
2018-11-21T11:05:06.844Z,13.17
2018-11-21T11:06:06.661Z,13.65
2018-11-21T11:08:48.923Z,14.04
2018-11-21T11:09:49.885Z,14.42
2018-11-21T11:10:48.751Z,14.45
2018-11-21T11:11:48.671Z,14.48
2018-11-21T11:12:48.577Z,14.59
2018-11-21T11:13:48.515Z,14.71
2018-11-21T11:14:48.449Z,14.67
2018-11-21T11:15:48.343Z,13.91
2018-11-21T11:26:47.628Z,10.87
2018-11-21T11:27:46.508Z,11.27
2018-11-21T11:28:46.451Z,11.75
2018-11-21T11:29:46.390Z,11.93
2018-11-21T11:30:46.294Z,11.64
2018-11-21T11:31:46.991Z,11.66
2018-11-21T11:32:46.111Z,11.63
2018-11-21T11:33:46.011Z,11.67
2018-11-21T11:34:45.982Z,11.24
2018-11-21T11:35:45.904Z,10.93
2018-11-21T11:36:45.817Z,9.81
2018-11-21T11:37:45.696Z,9.62
2018-11-21T11:38:45.619Z,9.13
2018-11-21T11:39:45.541Z,8.93
2018-11-21T11:40:45.991Z,9.23
2018-11-21T11:41:45.395Z,9.49
2018-11-21T11:42:45.305Z,9.59
2018-11-21T11:43:45.941Z,9.53
2018-11-21T11:44:45.158Z,9.59
2018-11-21T11:45:45.078Z,9.12
2018-11-21T11:46:44.972Z,9.40
2018-11-21T11:47:44.862Z,9.56
2018-11-21T11:50:26.956Z,9.98
2018-11-21T11:51:26.852Z,10.07
2018-11-21T11:52:26.787Z,10.88
2018-11-21T11:55:08.942Z,11.53
2018-11-21T11:56:08.844Z,10.73
2018-11-21T11:57:08.813Z,10.07
2018-11-21T11:58:08.692Z,10.32
2018-11-21T11:59:08.593Z,11.08
2018-11-21T12:00:08.526Z,11.53
2018-11-21T12:01:08.429Z,11.69
2018-11-21T12:02:08.572Z,12.05
2018-11-21T12:03:09.937Z,12.00
2018-11-21T12:04:08.188Z,12.43
2018-11-21T12:05:08.089Z,12.51
2018-11-21T12:07:49.951Z,11.59
2018-11-21T12:10:31.941Z,10.28
2018-11-21T12:11:31.868Z,9.78
2018-11-21T12:12:32.869Z,9.55
2018-11-21T12:13:33.734Z,9.52
2018-11-21T12:14:31.614Z,9.00
2018-11-21T12:17:13.431Z,8.21
2018-11-21T12:19:38.969Z,8.46
2018-11-21T12:20:38.850Z,8.63
2018-11-21T12:21:38.782Z,8.80
2018-11-21T12:22:38.709Z,8.93
2018-11-21T12:25:20.941Z,8.55
2018-11-21T12:26:20.849Z,8.64
2018-11-21T12:27:20.797Z,8.65
2018-11-21T12:28:20.696Z,8.50
2018-11-21T12:29:20.617Z,8.78
2018-11-21T12:30:21.574Z,8.79
2018-11-21T12:31:20.449Z,8.68
2018-11-21T12:35:16.462Z,8.80
2018-11-21T12:36:16.367Z,8.79
2018-11-21T12:37:16.261Z,8.75
2018-11-21T12:38:16.254Z,8.71
2018-11-21T12:39:16.139Z,8.80
2018-11-21T12:40:16.022Z,8.78
2018-11-21T12:41:15.929Z,8.83
2018-11-21T12:42:15.859Z,8.79
2018-11-21T12:43:15.806Z,8.80
2018-11-21T12:44:15.686Z,8.70
2018-11-21T12:45:15.627Z,8.75
2018-11-21T12:46:15.543Z,8.78
2018-11-21T12:47:15.440Z,8.79
2018-11-21T12:49:57.518Z,8.54
2018-11-21T12:50:57.414Z,8.60
2018-11-21T12:51:57.283Z,8.71
2018-11-21T12:52:59.196Z,8.75
2018-11-21T12:53:57.096Z,8.76
2018-11-21T12:54:57.062Z,8.57
2018-11-21T12:55:56.941Z,8.68
2018-11-21T12:56:56.851Z,8.60
2018-11-21T12:57:56.782Z,8.63
2018-11-21T12:58:56.691Z,8.79
2018-11-21T12:59:56.608Z,8.82
2018-11-21T13:00:57.579Z,8.71
2018-11-21T13:01:56.483Z,8.60
2018-11-21T13:02:56.359Z,8.46
2018-11-21T13:03:56.284Z,8.12
2018-11-21T13:04:56.208Z,8.03
2018-11-21T13:05:56.109Z,7.95
2018-11-21T13:06:56.083Z,7.62
2018-11-21T13:07:55.930Z,7.45
2018-11-21T13:10:37.942Z,7.57
2018-11-21T13:11:38.509Z,7.51
2018-11-21T13:12:37.780Z,7.51
2018-11-21T13:15:19.963Z,7.63
2018-11-21T13:16:19.866Z,7.66
2018-11-21T13:17:19.820Z,7.66
2018-11-21T13:44:41.545Z,7.33
2018-11-21T13:47:23.465Z,7.29
2018-11-21T13:48:23.371Z,7.24
2018-11-21T13:49:23.314Z,7.33
2018-11-21T13:50:23.191Z,7.34
2018-11-21T13:51:23.185Z,7.23
2018-11-21T13:52:23.049Z,7.21
2018-11-21T13:53:22.951Z,7.11
2018-11-21T13:54:22.858Z,7.23
2018-11-21T13:55:22.776Z,7.15
2018-11-21T13:56:22.687Z,7.26
2018-11-21T13:57:22.598Z,7.23
2018-11-21T13:58:23.556Z,7.23
2018-11-21T13:59:22.463Z,7.26
2018-11-21T14:00:22.357Z,7.23
2018-11-21T14:01:22.280Z,7.18
2018-11-21T14:04:04.493Z,7.19
2018-11-21T14:05:25.346Z,7.18
2018-11-21T14:06:06.962Z,7.15
2018-11-21T14:07:04.232Z,7.16
2018-11-21T14:08:25.129Z,7.15
2018-11-21T14:10:46.449Z,7.11
2018-11-21T14:11:46.965Z,7.18
2018-11-21T14:12:46.297Z,7.11
2018-11-21T14:13:48.017Z,7.07
2018-11-21T14:14:46.161Z,7.01
2018-11-21T14:15:46.036Z,6.87
2018-11-21T14:16:45.938Z,6.99
2018-11-21T14:19:27.995Z,7.00
2018-11-21T14:20:27.875Z,6.90
2018-11-21T14:22:52.454Z,6.96
2018-11-21T14:24:13.379Z,6.94
2018-11-21T14:24:52.348Z,6.89
2018-11-21T14:27:34.473Z,6.91
2018-11-21T14:28:34.370Z,6.89
2018-11-21T14:29:34.454Z,6.86
2018-11-21T14:33:19.476Z,6.96
2018-11-21T14:34:19.387Z,6.94
2018-11-21T14:35:20.026Z,6.93
2018-11-21T14:38:01.480Z,6.65
2018-11-21T14:40:43.514Z,6.72
2018-11-21T14:43:25.482Z,6.76
2018-11-21T14:46:07.498Z,6.76
2018-11-21T14:47:07.433Z,6.72
2018-11-21T14:48:07.300Z,6.64
2018-11-21T14:49:07.217Z,6.57
2018-11-21T14:50:07.151Z,6.43
2018-11-21T14:51:07.044Z,6.46
2018-11-21T14:52:08.469Z,6.43
2018-11-21T14:53:06.871Z,6.53
2018-11-21T14:54:06.786Z,6.43
2018-11-21T14:56:49.020Z,6.39
2018-11-21T14:57:48.900Z,6.39
2018-11-21T14:58:48.784Z,6.42
2018-11-21T15:02:32.018Z,6.27
2018-11-21T15:05:13.999Z,6.17
2018-11-21T15:06:14.142Z,6.25
2018-11-21T15:07:14.094Z,6.25
2018-11-21T15:08:14.239Z,6.24
2018-11-21T15:09:13.625Z,6.24
2018-11-21T15:10:13.591Z,6.25
2018-11-21T15:11:13.487Z,6.17
2018-11-21T15:12:13.398Z,6.08
2018-11-21T15:13:13.282Z,6.11
2018-11-21T15:14:14.033Z,5.98
2018-11-21T15:15:13.099Z,5.96
2018-11-21T15:16:13.019Z,5.95
2018-11-21T15:17:12.967Z,5.95
2018-11-21T15:18:12.862Z,5.90
2018-11-21T15:19:12.800Z,5.95
2018-11-21T15:20:12.695Z,5.88
2018-11-21T15:21:16.447Z,5.93
2018-11-21T15:22:12.557Z,5.88
2018-11-21T15:23:12.422Z,5.96
2018-11-21T15:24:12.369Z,5.90
2018-11-21T15:25:12.254Z,5.87
2018-11-21T15:26:12.166Z,5.87
2018-11-21T15:27:12.092Z,5.87
2018-11-21T15:28:12.045Z,5.85
2018-11-21T15:29:11.913Z,5.87
2018-11-21T15:30:11.824Z,5.83
2018-11-21T15:31:11.739Z,5.75
2018-11-21T15:32:11.696Z,5.78
2018-11-21T15:33:11.600Z,5.84
2018-11-21T15:35:53.470Z,5.84
2018-11-21T15:36:53.402Z,5.80
2018-11-21T15:37:53.338Z,5.80
2018-11-21T15:38:54.437Z,5.65
2018-11-21T15:39:53.139Z,5.80
2018-11-21T15:40:53.054Z,5.70
2018-11-21T15:41:52.969Z,5.66
2018-11-21T15:42:52.868Z,5.58
2018-11-21T15:43:52.807Z,5.56
2018-11-21T15:44:52.725Z,5.60
2018-11-21T15:45:52.610Z,5.55
2018-11-21T15:46:52.540Z,5.55
2018-11-21T15:47:52.440Z,5.62
2018-11-21T15:48:53.400Z,5.52
2018-11-21T15:49:52.267Z,5.55
2018-11-21T15:52:34.491Z,5.56
2018-11-21T15:53:34.386Z,5.56
2018-11-21T15:54:34.319Z,5.51
2018-11-21T15:57:16.496Z,5.51
2018-11-21T15:58:16.382Z,5.56
2018-11-21T15:59:16.321Z,5.45
2018-11-21T16:00:16.264Z,5.45
2018-11-21T16:01:16.113Z,5.44
2018-11-21T16:02:16.043Z,5.40
2018-11-21T16:03:15.942Z,5.32
2018-11-21T16:04:15.903Z,5.37
2018-11-21T16:05:15.795Z,5.42
2018-11-21T16:06:15.695Z,5.32
2018-11-21T16:07:15.601Z,5.40
2018-11-21T16:08:15.535Z,5.38
2018-11-21T16:09:15.445Z,5.27
2018-11-21T16:10:18.895Z,5.22
2018-11-21T16:11:15.266Z,5.27
2018-11-21T16:12:16.095Z,5.20
2018-11-21T16:13:15.085Z,5.24
2018-11-21T16:15:39.509Z,5.24
2018-11-21T16:16:39.381Z,5.32
2018-11-21T16:17:39.301Z,5.27
2018-11-21T16:18:39.217Z,5.27
2018-11-21T16:21:21.521Z,5.15
2018-11-21T16:22:21.388Z,5.17
2018-11-21T16:23:21.295Z,5.22
2018-11-21T16:24:21.217Z,5.23
2018-11-21T16:25:21.138Z,5.15
2018-11-21T16:26:22.070Z,5.17
2018-11-21T16:27:21.529Z,5.11
2018-11-21T16:30:02.994Z,5.15
2018-11-21T16:31:02.889Z,5.14
2018-11-21T16:32:02.798Z,5.02
2018-11-21T16:33:02.720Z,5.05
2018-11-21T16:34:02.625Z,5.08
2018-11-21T16:35:07.984Z,5.08
2018-11-21T16:36:02.465Z,4.99
2018-11-21T16:37:02.410Z,5.01
2018-11-21T16:38:02.310Z,5.04
2018-11-21T16:39:02.197Z,5.08
2018-11-21T16:40:02.100Z,5.02
2018-11-21T16:41:02.544Z,5.05
2018-11-21T16:42:01.982Z,5.02
2018-11-21T16:43:04.516Z,4.93
2018-11-21T16:44:01.764Z,4.97
2018-11-21T16:45:01.701Z,4.96
2018-11-21T16:46:01.582Z,4.96
2018-11-21T16:47:01.553Z,4.93
2018-11-21T16:48:02.039Z,4.97
2018-11-21T16:50:43.470Z,5.01
2018-11-21T16:53:26.275Z,4.80
2018-11-21T16:56:08.064Z,4.84
2018-11-21T16:57:28.407Z,4.83
2018-11-21T16:58:07.997Z,4.86
2018-11-21T16:59:07.261Z,4.69
2018-11-21T17:00:07.140Z,4.69
2018-11-21T17:01:07.043Z,4.64
2018-11-21T17:02:07.008Z,4.65
2018-11-21T17:03:06.873Z,4.69
2018-11-21T17:05:48.983Z,4.67
2018-11-21T17:06:48.956Z,4.62
2018-11-21T17:07:49.487Z,4.59
2018-11-21T17:08:48.713Z,4.62
2018-11-21T17:11:30.986Z,4.64
2018-11-21T17:12:30.937Z,4.56
2018-11-21T17:13:31.990Z,4.53
2018-11-21T17:14:30.773Z,4.47
2018-11-21T17:15:30.888Z,4.57
2018-11-21T17:16:31.039Z,4.57
2018-11-21T17:17:33.987Z,4.47
2018-11-21T17:18:32.386Z,4.51
2018-11-21T17:19:30.315Z,4.47
2018-11-21T17:20:30.242Z,4.42
2018-11-21T17:21:30.100Z,4.43
2018-11-21T17:24:12.001Z,4.42
2018-11-21T17:25:11.907Z,4.38
2018-11-21T17:26:11.794Z,4.35
2018-11-21T17:27:11.719Z,4.38
2018-11-21T17:28:12.029Z,4.50
2018-11-21T17:29:11.589Z,4.34
2018-11-21T17:30:11.459Z,4.38
2018-11-21T17:31:12.058Z,4.34
2018-11-21T17:32:11.317Z,4.35
2018-11-21T17:33:11.254Z,4.42
2018-11-21T17:34:11.198Z,4.35
2018-11-21T17:35:11.022Z,4.32
2018-11-21T17:36:10.948Z,4.42
2018-11-21T17:37:32.684Z,4.38
2018-11-21T17:38:10.807Z,4.38
2018-11-21T17:39:10.735Z,4.43
2018-11-21T17:40:11.681Z,4.44
2018-11-21T17:41:10.535Z,4.47
2018-11-21T17:43:52.492Z,4.51
2018-11-21T17:46:35.022Z,4.36
2018-11-21T17:47:34.411Z,4.42
2018-11-21T17:48:34.309Z,4.32
2018-11-21T17:49:34.243Z,4.42
2018-11-21T17:54:25.006Z,4.38
2018-11-21T17:55:24.969Z,4.36
2018-11-21T17:56:24.834Z,4.49
2018-11-21T17:57:27.970Z,4.61
2018-11-21T18:00:06.970Z,4.65
2018-11-21T18:12:15.597Z,4.56
2018-11-21T18:29:29.059Z,4.43
2018-11-21T18:30:28.972Z,4.46
2018-11-21T18:34:52.992Z,4.44
2018-11-21T18:37:56.051Z,4.51
2018-11-21T18:42:20.401Z,4.50
2018-11-21T18:43:20.508Z,4.42
2018-11-21T19:06:17.818Z,4.67
2018-11-21T19:07:17.738Z,4.67
2018-11-21T19:08:17.620Z,4.61
2018-11-21T19:09:17.606Z,4.51
2018-11-21T19:10:18.003Z,4.67
2018-11-21T19:11:17.366Z,4.67
2018-11-21T19:12:17.262Z,4.68
2018-11-21T19:13:17.214Z,4.71
2018-11-21T19:14:17.140Z,4.69
2018-11-21T19:15:17.034Z,4.69
2018-11-21T19:16:16.936Z,4.67
2018-11-21T19:17:16.866Z,4.69
2018-11-21T19:20:03.039Z,4.75
2018-11-21T19:21:02.910Z,4.74
2018-11-21T19:23:45.004Z,4.84
2018-11-21T19:24:44.938Z,4.80
2018-11-21T19:25:46.003Z,4.83
2018-11-21T19:26:48.501Z,4.87
2018-11-21T19:27:46.504Z,4.84
2018-11-21T19:28:44.566Z,4.84
2018-11-21T19:29:44.499Z,4.87
2018-11-21T19:30:44.412Z,4.84
2018-11-21T19:33:26.498Z,4.88
2018-11-21T19:34:26.404Z,4.79
2018-11-21T19:35:26.360Z,4.84
2018-11-21T19:36:26.242Z,4.86
2018-11-21T19:37:26.153Z,4.87
2018-11-21T19:38:26.053Z,5.01
2018-11-21T19:39:26.026Z,4.93
2018-11-21T19:40:25.892Z,4.93
2018-11-21T19:41:26.867Z,4.99
2018-11-21T19:42:25.707Z,4.99
2018-11-21T19:43:26.545Z,4.91
2018-11-21T19:44:25.540Z,5.01
2018-11-21T19:45:25.484Z,4.96
2018-11-21T19:46:25.387Z,4.96
2018-11-21T19:47:25.302Z,4.93
2018-11-21T19:48:25.222Z,5.05
2018-11-21T19:49:25.116Z,4.93
2018-11-21T19:50:25.102Z,4.94
2018-11-21T19:51:25.000Z,4.94
2018-11-21T19:52:24.884Z,4.97
2018-11-21T19:53:24.787Z,5.02
2018-11-21T19:54:24.681Z,4.99
2018-11-21T20:01:48.395Z,4.97